createdAt,value
2019-05-25T00:00:23.652Z,68.24
2019-05-25T00:02:58.700Z,68.99
2019-05-25T00:05:33.998Z,69.32
2019-05-25T00:08:08.979Z,69.27
2019-05-25T00:10:43.963Z,69.26
2019-05-25T00:13:19.051Z,68.82
2019-05-25T00:15:54.024Z,68.08
2019-05-25T00:18:29.192Z,68.29
2019-05-25T00:21:04.249Z,68.33
2019-05-25T00:23:39.239Z,68.56
2019-05-25T00:26:14.196Z,68.96
2019-05-25T00:28:49.459Z,68.20
2019-05-25T00:31:24.553Z,68.86
2019-05-25T00:34:00.293Z,68.43
2019-05-25T00:36:35.799Z,69.62
2019-05-25T00:39:10.857Z,68.49
2019-05-25T00:41:45.934Z,68.09
2019-05-25T00:44:20.928Z,68.66
2019-05-25T00:46:56.023Z,68.31
2019-05-25T00:49:31.031Z,69.27
2019-05-25T00:52:06.023Z,69.23
2019-05-25T00:54:41.113Z,68.83
2019-05-25T00:57:16.129Z,68.22
2019-05-25T00:59:51.122Z,68.27
2019-05-25T01:02:26.201Z,68.74
2019-05-25T01:05:01.182Z,69.54
2019-05-25T01:07:36.203Z,68.75
2019-05-25T01:10:12.699Z,68.43
2019-05-25T01:12:48.432Z,69.12
2019-05-25T01:15:24.005Z,67.74
2019-05-25T01:17:59.091Z,68.35
2019-05-25T01:20:34.186Z,68.53
2019-05-25T01:23:09.146Z,68.68
2019-05-25T01:25:44.527Z,69.25
2019-05-25T01:28:19.501Z,68.86
2019-05-25T01:30:54.481Z,68.80
2019-05-25T01:33:29.564Z,67.97
2019-05-25T01:36:04.552Z,68.70
2019-05-25T01:38:39.887Z,68.22
2019-05-25T01:41:14.891Z,69.42
2019-05-25T01:43:50.931Z,68.89
2019-05-25T01:46:25.907Z,69.56
2019-05-25T01:49:01.125Z,70.65
2019-05-25T01:51:36.082Z,70.29
2019-05-25T01:54:11.065Z,72.03
2019-05-25T01:56:46.031Z,71.65
2019-05-25T01:59:21.045Z,71.92
2019-05-25T02:01:56.149Z,71.68
2019-05-25T02:04:31.296Z,71.25
2019-05-25T02:07:06.368Z,71.31
2019-05-25T02:09:41.352Z,71.29
2019-05-25T02:12:16.459Z,71.54
2019-05-25T02:14:52.484Z,71.18
2019-05-25T02:17:27.487Z,72.10
2019-05-25T02:20:02.522Z,71.62
2019-05-25T02:22:38.551Z,71.40
2019-05-25T02:25:18.197Z,71.34
2019-05-25T02:27:51.157Z,72.10
2019-05-25T02:30:30.980Z,72.37
2019-05-25T02:33:05.942Z,71.70
2019-05-25T02:35:42.211Z,72.02
2019-05-25T02:38:17.298Z,72.22
2019-05-25T02:40:52.379Z,71.52
2019-05-25T02:43:27.352Z,71.54
2019-05-25T02:46:02.449Z,71.17
2019-05-25T02:48:37.505Z,71.89
2019-05-25T02:51:12.611Z,71.67
2019-05-25T02:53:47.710Z,72.44
2019-05-25T02:56:22.682Z,74.98
2019-05-25T02:58:57.759Z,76.19
2019-05-25T03:01:33.136Z,76.80
2019-05-25T03:04:08.192Z,77.12
2019-05-25T03:06:44.771Z,78.04
2019-05-25T03:09:22.036Z,78.19
2019-05-25T03:11:59.676Z,77.77
2019-05-25T03:14:34.845Z,78.07
2019-05-25T03:17:09.883Z,78.57
2019-05-25T03:19:44.851Z,78.16
2019-05-25T03:22:19.840Z,78.60
2019-05-25T03:24:54.917Z,78.89
2019-05-25T03:27:29.916Z,78.58
2019-05-25T03:30:06.332Z,78.63
2019-05-25T03:32:41.320Z,78.38
2019-05-25T03:35:16.308Z,78.20
2019-05-25T03:37:51.270Z,77.80
2019-05-25T03:40:26.262Z,77.87
2019-05-25T03:43:03.743Z,78.32
2019-05-25T03:45:38.936Z,76.81
2019-05-25T03:48:14.006Z,78.62
2019-05-25T03:50:49.134Z,79.17
2019-05-25T03:53:24.196Z,78.57
2019-05-25T03:56:05.715Z,78.95
2019-05-25T03:58:35.965Z,78.52
2019-05-25T04:01:11.699Z,79.70
2019-05-25T04:03:46.688Z,78.70
2019-05-25T04:06:21.762Z,79.12
2019-05-25T04:08:56.817Z,79.38
2019-05-25T04:11:34.114Z,78.19
2019-05-25T04:14:10.065Z,78.22
2019-05-25T04:16:45.068Z,77.76
2019-05-25T04:19:20.138Z,77.31
2019-05-25T04:21:55.138Z,77.44
2019-05-25T04:24:30.109Z,77.22
2019-05-25T04:27:09.284Z,77.21
2019-05-25T04:29:44.538Z,76.93
2019-05-25T04:32:20.397Z,77.05
2019-05-25T04:34:55.464Z,76.97
2019-05-25T04:37:30.566Z,76.36
2019-05-25T04:40:06.030Z,76.51
2019-05-25T04:42:42.097Z,76.37
2019-05-25T04:45:17.361Z,76.53
2019-05-25T04:47:52.433Z,75.91
2019-05-25T04:50:27.502Z,76.05
2019-05-25T04:53:02.591Z,75.52
2019-05-25T04:55:37.550Z,75.26
2019-05-25T04:58:12.534Z,74.58
2019-05-25T05:00:47.530Z,74.27
2019-05-25T05:03:22.535Z,74.39
2019-05-25T05:05:57.522Z,74.40
2019-05-25T05:08:35.595Z,73.68
2019-05-25T05:11:09.204Z,74.13
2019-05-25T05:13:44.202Z,73.96
2019-05-25T05:16:19.311Z,72.83
2019-05-25T05:18:54.294Z,72.02
2019-05-25T05:21:29.334Z,72.04
2019-05-25T05:24:04.372Z,72.12
2019-05-25T05:26:54.626Z,71.80
2019-05-25T05:29:16.162Z,72.39
2019-05-25T05:31:51.386Z,72.39
2019-05-25T05:34:26.483Z,73.76
2019-05-25T05:37:03.290Z,74.87
2019-05-25T05:39:38.378Z,74.20
2019-05-25T05:42:16.851Z,75.57
2019-05-25T05:44:53.974Z,76.30
2019-05-25T05:47:31.764Z,78.24
2019-05-25T05:50:08.860Z,77.83
2019-05-25T05:52:49.032Z,77.09
2019-05-25T05:55:33.392Z,77.40
2019-05-25T05:58:08.558Z,76.68
2019-05-25T06:00:44.546Z,76.04
2019-05-25T06:03:21.858Z,75.29
2019-05-25T06:05:57.859Z,74.20
2019-05-25T06:08:33.186Z,73.65
2019-05-25T06:11:08.368Z,72.15
2019-05-25T06:13:43.952Z,72.81
2019-05-25T06:16:19.150Z,73.16
2019-05-25T06:18:54.256Z,72.80
2019-05-25T06:21:29.650Z,73.23
2019-05-25T06:24:06.293Z,72.83
2019-05-25T06:26:41.472Z,72.19
2019-05-25T06:29:16.772Z,73.15
2019-05-25T06:31:52.047Z,72.95
2019-05-25T06:34:28.438Z,72.86
2019-05-25T06:37:03.607Z,72.66
2019-05-25T06:39:38.778Z,72.15
2019-05-25T06:42:13.910Z,73.62
2019-05-25T06:44:49.403Z,72.82
2019-05-25T06:47:24.615Z,73.07
2019-05-25T06:49:59.691Z,74.48
2019-05-25T06:52:37.656Z,74.78
2019-05-25T06:55:13.581Z,76.34
2019-05-25T06:57:49.024Z,77.05
2019-05-25T07:00:25.030Z,77.08
2019-05-25T07:03:00.334Z,77.71
2019-05-25T07:05:35.596Z,77.65
2019-05-25T07:08:10.952Z,77.03
2019-05-25T07:10:46.134Z,76.02
2019-05-25T07:13:21.353Z,76.32
2019-05-25T07:15:56.629Z,75.80
2019-05-25T07:18:35.247Z,74.19
2019-05-25T07:21:10.730Z,73.65
2019-05-25T07:23:46.070Z,72.78
2019-05-25T07:26:24.316Z,72.32
2019-05-25T07:29:02.049Z,72.68
2019-05-25T07:31:37.098Z,72.09
2019-05-25T07:34:14.887Z,71.75
2019-05-25T07:36:50.064Z,70.20
2019-05-25T07:39:25.514Z,71.15
2019-05-25T07:42:01.200Z,70.90
2019-05-25T07:44:36.651Z,71.49
2019-05-25T07:47:13.288Z,71.21
2019-05-25T07:49:48.946Z,71.30
2019-05-25T07:52:23.936Z,70.12
2019-05-25T07:54:59.039Z,71.90
2019-05-25T07:57:34.317Z,73.26
2019-05-25T08:00:10.425Z,73.28
2019-05-25T08:02:46.415Z,74.80
2019-05-25T08:05:24.832Z,73.55
2019-05-25T08:07:59.893Z,73.74
2019-05-25T08:10:38.709Z,73.29
2019-05-25T08:13:13.828Z,73.52
2019-05-25T08:15:49.073Z,71.66
2019-05-25T08:18:25.269Z,74.43
2019-05-25T08:21:00.372Z,75.09
2019-05-25T08:23:35.523Z,75.95
2019-05-25T08:26:10.678Z,75.89
2019-05-25T08:28:45.790Z,75.95
2019-05-25T08:31:20.846Z,74.65
2019-05-25T08:33:56.390Z,73.67
2019-05-25T08:36:31.614Z,72.47
2019-05-25T08:39:08.424Z,70.82
2019-05-25T08:41:45.580Z,71.00
2019-05-25T08:44:20.570Z,68.93
2019-05-25T08:46:56.670Z,67.26
2019-05-25T08:49:32.711Z,66.24
2019-05-25T08:52:07.893Z,66.60
2019-05-25T08:54:43.090Z,66.68
2019-05-25T08:57:18.736Z,65.52
2019-05-25T08:59:53.920Z,65.01
2019-05-25T09:02:29.160Z,64.38
2019-05-25T09:05:05.569Z,63.34
2019-05-25T09:07:41.816Z,64.06
2019-05-25T09:10:17.961Z,62.31
2019-05-25T09:12:53.069Z,62.99
2019-05-25T09:15:28.238Z,63.60
2019-05-25T09:18:07.296Z,65.38
2019-05-25T09:20:42.475Z,64.02
2019-05-25T09:23:17.608Z,65.75
2019-05-25T09:25:52.687Z,66.23
2019-05-25T09:28:27.949Z,65.70
2019-05-25T09:31:03.356Z,64.32
2019-05-25T09:33:41.015Z,66.46
2019-05-25T09:36:16.065Z,65.62
2019-05-25T09:38:51.324Z,64.93
2019-05-25T09:41:26.749Z,63.61
2019-05-25T09:44:04.068Z,63.58
2019-05-25T09:46:39.236Z,64.05
2019-05-25T09:49:14.965Z,63.31
2019-05-25T09:51:50.066Z,60.41
2019-05-25T09:54:25.387Z,60.03
2019-05-25T09:57:01.324Z,59.11
2019-05-25T09:59:36.525Z,60.03
2019-05-25T10:02:11.568Z,61.54
2019-05-25T10:04:46.784Z,58.93
2019-05-25T10:07:22.145Z,58.31
2019-05-25T10:09:57.406Z,58.93
2019-05-25T10:12:32.681Z,60.63
2019-05-25T10:15:08.170Z,61.27
2019-05-25T10:17:43.314Z,63.06
2019-05-25T10:20:19.209Z,63.81
2019-05-25T10:22:57.911Z,62.66
2019-05-25T10:25:33.821Z,62.31
2019-05-25T10:28:09.535Z,62.00
2019-05-25T10:30:45.072Z,60.69
2019-05-25T10:33:21.894Z,59.70
2019-05-25T10:35:57.171Z,59.56
2019-05-25T10:38:33.601Z,57.63
2019-05-25T10:41:08.677Z,57.54
2019-05-25T10:43:43.830Z,58.68
2019-05-25T10:46:19.035Z,59.40
2019-05-25T10:48:54.985Z,58.91
2019-05-25T10:51:31.061Z,59.30
2019-05-25T10:54:10.664Z,56.50
2019-05-25T10:56:45.994Z,58.25
2019-05-25T10:59:22.731Z,59.20
2019-05-25T11:02:00.623Z,60.40
2019-05-25T11:04:36.672Z,58.92
2019-05-25T11:07:12.537Z,56.13
2019-05-25T11:09:47.797Z,54.81
2019-05-25T11:12:26.048Z,55.05
2019-05-25T11:14:59.762Z,53.20
2019-05-25T11:17:34.924Z,52.80
2019-05-25T11:20:11.991Z,52.51
2019-05-25T11:22:47.491Z,50.93
2019-05-25T11:25:22.720Z,52.92
2019-05-25T11:27:58.089Z,52.92
2019-05-25T11:30:34.119Z,52.30
2019-05-25T11:33:10.835Z,52.14
2019-05-25T11:35:46.673Z,53.11
2019-05-25T11:38:21.947Z,52.36
2019-05-25T11:40:57.150Z,52.44
2019-05-25T11:43:32.427Z,51.77
2019-05-25T11:46:07.614Z,50.90
2019-05-25T11:48:43.971Z,51.66
2019-05-25T11:51:19.241Z,51.86
2019-05-25T11:53:54.677Z,51.07
2019-05-25T11:56:29.920Z,51.08
2019-05-25T11:59:05.125Z,53.29
2019-05-25T12:01:40.325Z,51.55
2019-05-25T12:04:15.658Z,51.95
2019-05-25T12:06:50.888Z,51.81
2019-05-25T12:09:26.782Z,52.68
2019-05-25T12:12:01.997Z,52.41
2019-05-25T12:14:37.344Z,52.09
2019-05-25T12:17:12.680Z,49.98
2019-05-25T12:19:48.136Z,50.25
2019-05-25T12:22:23.467Z,49.52
2019-05-25T12:24:58.846Z,47.20
2019-05-25T12:27:34.135Z,47.43
2019-05-25T12:30:11.084Z,48.05
2019-05-25T12:32:46.358Z,48.03
2019-05-25T12:35:24.484Z,48.42
2019-05-25T12:37:59.953Z,48.52
2019-05-25T12:40:35.263Z,50.73
2019-05-25T12:43:10.503Z,50.48
2019-05-25T12:45:45.664Z,49.98
2019-05-25T12:48:20.895Z,50.30
2019-05-25T12:50:56.890Z,50.00
2019-05-25T12:53:32.918Z,48.32
2019-05-25T12:56:08.072Z,46.13
2019-05-25T12:58:45.215Z,48.26
2019-05-25T13:01:20.218Z,49.39
2019-05-25T13:03:55.443Z,51.37
2019-05-25T13:06:30.525Z,50.30
2019-05-25T13:09:07.292Z,52.16
2019-05-25T13:11:42.270Z,51.75
2019-05-25T13:14:17.601Z,52.04
2019-05-25T13:16:52.589Z,51.98
2019-05-25T13:19:27.637Z,52.95
2019-05-25T13:22:02.838Z,54.02
2019-05-25T13:24:37.974Z,54.44
2019-05-25T13:27:12.989Z,54.46
2019-05-25T13:29:48.089Z,53.48
2019-05-25T13:32:23.100Z,51.97
2019-05-25T13:34:58.091Z,51.97
2019-05-25T13:37:33.158Z,50.22
2019-05-25T13:40:09.800Z,51.43
2019-05-25T13:42:44.893Z,50.17
2019-05-25T13:45:20.054Z,52.82
2019-05-25T13:47:55.155Z,53.00
2019-05-25T13:50:30.240Z,53.52
2019-05-25T13:53:06.011Z,51.83
2019-05-25T13:55:42.150Z,51.16
2019-05-25T13:58:17.164Z,48.58
2019-05-25T14:00:52.203Z,47.96
2019-05-25T14:03:27.324Z,48.10
2019-05-25T14:06:02.405Z,50.00
2019-05-25T14:08:37.703Z,51.23
2019-05-25T14:11:12.778Z,51.86
2019-05-25T14:13:47.889Z,51.25
2019-05-25T14:16:22.868Z,51.36
2019-05-25T14:18:57.846Z,52.08
2019-05-25T14:21:33.069Z,52.06
2019-05-25T14:24:08.075Z,51.93
2019-05-25T14:26:43.207Z,53.06
2019-05-25T14:29:18.955Z,50.31
2019-05-25T14:31:54.240Z,49.88
2019-05-25T14:34:29.269Z,50.10
2019-05-25T14:37:04.503Z,49.68
2019-05-25T14:39:39.507Z,50.47
2019-05-25T14:42:14.518Z,51.29
2019-05-25T14:44:49.631Z,51.93
2019-05-25T14:47:24.606Z,51.70
2019-05-25T14:49:59.953Z,52.08
2019-05-25T14:52:35.056Z,53.09
2019-05-25T14:55:10.576Z,52.14
2019-05-25T14:57:45.597Z,52.39
2019-05-25T15:00:21.457Z,50.46
2019-05-25T15:02:56.553Z,49.65
2019-05-25T15:05:31.979Z,50.27
2019-05-25T15:08:07.228Z,51.42
2019-05-25T15:10:42.311Z,51.14
2019-05-25T15:13:17.478Z,52.01
2019-05-25T15:15:53.010Z,52.50
2019-05-25T15:18:29.108Z,51.92
2019-05-25T15:21:05.183Z,50.50
2019-05-25T15:23:41.555Z,50.75
2019-05-25T15:26:17.602Z,50.28
2019-05-25T15:28:53.100Z,50.95
2019-05-25T15:31:28.358Z,50.60
2019-05-25T15:34:03.601Z,52.28
2019-05-25T15:36:38.752Z,52.07
2019-05-25T15:39:14.085Z,50.49
2019-05-25T15:41:52.399Z,49.43
2019-05-25T15:44:27.475Z,50.51
2019-05-25T15:47:04.957Z,49.42
2019-05-25T15:49:39.600Z,51.22
2019-05-25T15:52:14.948Z,50.62
2019-05-25T15:54:50.289Z,50.06
2019-05-25T15:57:26.027Z,51.99
2019-05-25T16:00:01.226Z,51.88
2019-05-25T16:02:37.554Z,51.85
2019-05-25T16:05:13.607Z,51.56
2019-05-25T16:07:54.192Z,52.46
2019-05-25T16:10:29.728Z,52.21
2019-05-25T16:13:05.244Z,51.95
2019-05-25T16:15:41.266Z,53.02
2019-05-25T16:18:17.211Z,52.28
2019-05-25T16:20:52.540Z,52.17
2019-05-25T16:23:27.598Z,52.16
2019-05-25T16:26:02.854Z,52.98
2019-05-25T16:28:38.028Z,53.32
2019-05-25T16:31:15.526Z,52.79
2019-05-25T16:33:51.410Z,54.36
2019-05-25T16:36:26.710Z,54.57
2019-05-25T16:39:01.995Z,54.55
2019-05-25T16:41:38.448Z,53.95
2019-05-25T16:44:13.827Z,54.71
2019-05-25T16:46:48.902Z,52.90
2019-05-25T16:49:24.570Z,53.13
2019-05-25T16:51:59.702Z,52.33
2019-05-25T16:54:34.694Z,52.08
2019-05-25T16:57:10.084Z,50.62
2019-05-25T16:59:45.063Z,50.10
2019-05-25T17:02:20.171Z,52.36
2019-05-25T17:04:55.136Z,53.75
2019-05-25T17:07:30.241Z,54.28
2019-05-25T17:10:07.382Z,55.36
2019-05-25T17:12:42.470Z,55.12
2019-05-25T17:15:17.733Z,55.08
2019-05-25T17:17:54.348Z,53.98
2019-05-25T17:20:29.733Z,54.93
2019-05-25T17:23:04.832Z,53.45
2019-05-25T17:25:39.821Z,53.46
2019-05-25T17:28:15.892Z,53.95
2019-05-25T17:30:50.855Z,52.73
2019-05-25T17:33:26.490Z,52.11
2019-05-25T17:36:01.462Z,52.28
2019-05-25T17:38:37.110Z,50.18
2019-05-25T17:41:12.089Z,50.17
2019-05-25T17:43:48.212Z,51.37
2019-05-25T17:46:23.313Z,53.45
2019-05-25T17:48:58.314Z,53.98
2019-05-25T17:51:33.423Z,53.07
2019-05-25T17:54:08.421Z,52.68
2019-05-25T17:56:43.402Z,52.87
2019-05-25T17:59:18.531Z,53.46
2019-05-25T18:01:53.542Z,53.07
2019-05-25T18:04:28.525Z,52.85
2019-05-25T18:07:05.306Z,53.21
2019-05-25T18:09:40.447Z,52.80
2019-05-25T18:12:15.471Z,54.14
2019-05-25T18:14:51.743Z,52.66
2019-05-25T18:17:28.155Z,53.67
2019-05-25T18:20:04.049Z,52.72
2019-05-25T18:22:39.100Z,52.30
2019-05-25T18:25:14.271Z,53.71
2019-05-25T18:27:49.403Z,54.18
2019-05-25T18:30:25.104Z,55.09
2019-05-25T18:33:00.127Z,56.01
2019-05-25T18:35:35.456Z,55.68
2019-05-25T18:38:10.527Z,56.46
2019-05-25T18:40:45.541Z,56.70
2019-05-25T18:43:20.658Z,56.90
2019-05-25T18:45:55.888Z,58.08
2019-05-25T18:48:36.062Z,57.26
2019-05-25T18:51:11.248Z,59.07
2019-05-25T18:53:47.013Z,58.46
2019-05-25T18:56:22.053Z,59.04
2019-05-25T18:58:57.162Z,59.95
2019-05-25T19:01:32.161Z,60.22
2019-05-25T19:04:08.044Z,60.90
2019-05-25T19:06:43.058Z,61.25
2019-05-25T19:09:18.106Z,61.58
2019-05-25T19:11:53.193Z,61.20
2019-05-25T19:14:28.212Z,61.91
2019-05-25T19:17:03.290Z,61.32
2019-05-25T19:19:39.238Z,62.34
2019-05-25T19:22:14.238Z,62.38
2019-05-25T19:24:49.267Z,62.77
2019-05-25T19:27:24.219Z,63.29
2019-05-25T19:29:59.325Z,63.52
2019-05-25T19:32:34.453Z,63.90
2019-05-25T19:35:09.881Z,63.59
2019-05-25T19:37:44.909Z,63.92
2019-05-25T19:40:20.540Z,64.31
2019-05-25T19:42:57.373Z,65.09
2019-05-25T19:45:33.010Z,65.17
2019-05-25T19:48:08.930Z,65.44
2019-05-25T19:50:43.980Z,65.70
2019-05-25T19:53:18.982Z,65.89
2019-05-25T19:55:54.106Z,65.59
2019-05-25T19:58:29.226Z,65.80
2019-05-25T20:01:04.359Z,66.35
2019-05-25T20:03:40.090Z,67.51
2019-05-25T20:06:15.229Z,67.74
2019-05-25T20:08:50.224Z,68.08
2019-05-25T20:11:25.232Z,68.56
2019-05-25T20:14:00.295Z,68.75
2019-05-25T20:16:35.313Z,69.15
2019-05-25T20:19:10.358Z,68.98
2019-05-25T20:21:45.375Z,69.26
2019-05-25T20:24:20.335Z,69.39
2019-05-25T20:42:45.087Z,69.96
2019-05-25T20:45:21.847Z,70.48
2019-05-25T20:47:57.086Z,71.32
2019-05-25T20:50:32.286Z,71.50
2019-05-25T20:53:07.350Z,71.99
2019-05-25T20:55:43.219Z,72.22
2019-05-25T20:58:18.341Z,72.39
2019-05-25T21:00:53.384Z,72.13
2019-05-25T21:03:29.097Z,72.21
2019-05-25T21:06:06.301Z,71.97
2019-05-25T21:08:41.847Z,72.85
2019-05-25T21:11:17.432Z,72.85
2019-05-25T21:13:57.623Z,73.21
2019-05-25T21:16:32.721Z,73.17
2019-05-25T21:19:07.685Z,73.24
2019-05-25T21:21:42.751Z,73.27
2019-05-25T21:24:18.133Z,73.02
2019-05-25T21:26:53.151Z,73.30
2019-05-25T21:29:28.691Z,73.03
2019-05-25T21:32:04.157Z,73.30
2019-05-25T21:34:39.157Z,73.22
2019-05-25T21:37:14.971Z,73.42
2019-05-25T21:39:50.046Z,73.91
2019-05-25T21:42:25.038Z,73.75
2019-05-25T21:45:00.010Z,74.12
2019-05-25T21:47:35.097Z,73.68
2019-05-25T21:50:10.867Z,73.54
2019-05-25T21:52:46.086Z,73.19
2019-05-25T21:55:24.590Z,73.42
2019-05-25T21:57:59.602Z,74.29
2019-05-25T22:00:37.765Z,74.05
2019-05-25T22:03:12.835Z,74.22
2019-05-25T22:05:47.839Z,73.91
2019-05-25T22:08:22.841Z,73.57
2019-05-25T22:10:57.873Z,73.86
2019-05-25T22:13:33.007Z,73.69
2019-05-25T22:16:09.321Z,73.85
2019-05-25T22:18:44.814Z,73.47
2019-05-25T22:21:19.817Z,73.59
2019-05-25T22:23:54.803Z,73.64
2019-05-25T22:26:30.058Z,73.32
2019-05-25T22:29:05.063Z,74.02
2019-05-25T22:31:40.063Z,74.36
2019-05-25T22:34:15.043Z,74.65
2019-05-25T22:36:50.203Z,74.94
2019-05-25T22:39:25.225Z,74.68
2019-05-25T22:42:00.316Z,74.24
2019-05-25T22:44:35.259Z,74.40
2019-05-25T22:47:10.547Z,74.33
2019-05-25T22:49:45.516Z,74.92
2019-05-25T22:52:20.563Z,74.56
2019-05-25T22:54:55.522Z,74.99
2019-05-25T22:57:30.880Z,74.52
2019-05-25T23:00:07.828Z,74.73
2019-05-25T23:02:44.023Z,74.64
2019-05-25T23:05:18.970Z,75.11
2019-05-25T23:07:53.975Z,75.50
2019-05-25T23:10:29.054Z,75.18
2019-05-25T23:13:04.074Z,75.52
2019-05-25T23:15:39.068Z,75.06
2019-05-25T23:18:14.191Z,75.71
2019-05-25T23:20:49.289Z,75.88
2019-05-25T23:23:24.294Z,75.56
2019-05-25T23:25:59.260Z,75.58
2019-05-25T23:28:35.027Z,75.71
2019-05-25T23:31:11.254Z,75.47
2019-05-25T23:33:46.209Z,76.00
2019-05-25T23:36:21.191Z,75.84
2019-05-25T23:38:56.377Z,76.26
2019-05-25T23:41:31.491Z,75.70
2019-05-25T23:44:06.532Z,75.86
2019-05-25T23:46:42.408Z,75.76
2019-05-25T23:49:17.531Z,75.82
2019-05-25T23:51:52.615Z,75.66
2019-05-25T23:54:27.852Z,76.16
2019-05-25T23:57:03.629Z,76.32
2019-05-25T23:59:38.810Z,76.59
